createdAt,value
2023-01-07T00:01:45.172Z,60.28
2023-01-07T00:04:15.096Z,60.48
2023-01-07T00:06:43.932Z,60.20
2023-01-07T00:09:14.719Z,59.58
2023-01-07T00:11:42.060Z,60.29
2023-01-07T00:14:11.324Z,59.98
2023-01-07T00:16:39.106Z,60.02
2023-01-07T00:19:08.218Z,60.53
2023-01-07T00:21:35.293Z,60.00
2023-01-07T00:24:05.273Z,59.88
2023-01-07T00:26:37.191Z,59.71
2023-01-07T00:29:05.544Z,59.96
2023-01-07T00:31:35.588Z,60.38
2023-01-07T00:34:02.998Z,60.59
2023-01-07T00:36:32.844Z,60.66
2023-01-07T00:39:06.111Z,60.76
2023-01-07T00:41:33.425Z,59.92
2023-01-07T00:44:00.652Z,59.86
2023-01-07T00:46:27.843Z,59.87
2023-01-07T00:48:54.890Z,60.30
2023-01-07T00:51:21.941Z,60.48
2023-01-07T00:53:49.040Z,59.94
2023-01-07T00:56:20.372Z,60.53
2023-01-07T00:58:47.434Z,60.54
2023-01-07T01:01:15.957Z,60.26
2023-01-07T01:03:42.987Z,60.42
2023-01-07T01:06:16.472Z,60.19
2023-01-07T01:08:45.646Z,60.53
2023-01-07T01:11:14.857Z,60.04
2023-01-07T01:13:43.556Z,60.35
2023-01-07T01:16:14.735Z,60.25
2023-01-07T01:18:42.609Z,60.25
2023-01-07T01:21:12.288Z,60.68
2023-01-07T01:23:39.936Z,60.72
2023-01-07T01:26:09.501Z,60.50
2023-01-07T01:28:36.631Z,60.44
2023-01-07T01:31:04.602Z,60.29
2023-01-07T01:33:41.866Z,59.97
2023-01-07T01:36:12.120Z,60.12
2023-01-07T01:38:40.242Z,60.13
2023-01-07T01:41:07.541Z,59.83
2023-01-07T01:43:40.603Z,59.98
2023-01-07T01:46:30.125Z,60.02
2023-01-07T01:49:01.695Z,60.20
2023-01-07T01:51:34.810Z,59.93
2023-01-07T01:54:05.383Z,59.38
2023-01-07T01:56:36.020Z,59.71
2023-01-07T01:59:09.256Z,60.54
2023-01-07T02:01:39.069Z,60.33
2023-01-07T02:04:15.545Z,59.90
2023-01-07T02:07:11.874Z,59.71
2023-01-07T02:09:43.777Z,59.54
2023-01-07T02:12:33.219Z,59.76
2023-01-07T02:15:09.891Z,59.84
2023-01-07T02:17:36.921Z,59.87
2023-01-07T02:20:09.990Z,60.04
2023-01-07T02:23:12.048Z,59.59
2023-01-07T02:26:06.807Z,59.57
2023-01-07T02:29:01.977Z,59.52
2023-01-07T02:32:04.872Z,59.58
2023-01-07T02:34:55.664Z,59.73
2023-01-07T02:37:41.788Z,59.23
2023-01-07T02:40:20.563Z,59.66
2023-01-07T02:43:17.031Z,59.05
2023-01-07T02:45:56.887Z,59.40
2023-01-07T02:48:25.783Z,59.02
2023-01-07T02:50:52.839Z,59.12
2023-01-07T02:53:21.183Z,59.06
2023-01-07T02:56:31.341Z,59.33
2023-01-07T02:59:09.462Z,59.75
2023-01-07T03:01:52.123Z,59.32
2023-01-07T03:04:34.455Z,59.36
2023-01-07T03:07:01.353Z,59.49
2023-01-07T03:10:05.811Z,58.83
2023-01-07T03:12:50.262Z,59.59
2023-01-07T03:15:29.264Z,59.09
2023-01-07T03:18:04.620Z,58.86
2023-01-07T03:20:35.750Z,59.17
2023-01-07T03:23:07.054Z,59.18
2023-01-07T03:25:39.661Z,58.81
2023-01-07T03:28:08.079Z,58.46
2023-01-07T03:30:37.177Z,58.90
2023-01-07T03:33:27.634Z,58.90
2023-01-07T03:35:59.668Z,58.94
2023-01-07T03:38:27.960Z,58.32
2023-01-07T03:40:55.727Z,58.69
2023-01-07T03:43:23.469Z,58.77
2023-01-07T03:45:52.445Z,59.00
2023-01-07T03:48:19.723Z,58.70
2023-01-07T03:50:48.555Z,58.87
2023-01-07T03:53:15.779Z,58.57
2023-01-07T03:55:45.733Z,58.44
2023-01-07T03:58:13.720Z,58.61
2023-01-07T04:00:40.655Z,58.54
2023-01-07T04:03:14.542Z,58.75
2023-01-07T04:05:45.236Z,59.06
2023-01-07T04:08:13.059Z,58.65
2023-01-07T04:10:41.010Z,58.35
2023-01-07T04:13:08.643Z,58.62
2023-01-07T04:15:36.431Z,58.87
2023-01-07T04:18:03.650Z,58.82
2023-01-07T04:20:31.119Z,59.04
2023-01-07T04:22:58.142Z,58.92
2023-01-07T04:25:25.119Z,59.11
2023-01-07T04:27:52.237Z,58.93
2023-01-07T04:30:19.216Z,58.70
2023-01-07T04:32:46.246Z,58.21
2023-01-07T04:35:13.207Z,58.39
2023-01-07T04:37:40.192Z,58.19
2023-01-07T04:40:08.145Z,58.62
2023-01-07T04:42:36.752Z,58.37
2023-01-07T04:45:05.459Z,59.26
2023-01-07T04:47:32.469Z,59.33
2023-01-07T04:49:59.936Z,58.21
2023-01-07T04:52:31.068Z,59.31
2023-01-07T04:54:58.478Z,59.09
2023-01-07T04:57:25.669Z,58.71
2023-01-07T04:59:54.301Z,58.28
2023-01-07T05:02:21.522Z,59.22
2023-01-07T05:04:48.963Z,58.54
2023-01-07T05:07:18.016Z,58.30
2023-01-07T05:09:45.462Z,59.25
2023-01-07T05:12:13.888Z,58.37
2023-01-07T05:14:42.825Z,58.64
2023-01-07T05:17:10.006Z,58.56
2023-01-07T05:19:38.362Z,58.54
2023-01-07T05:22:05.394Z,58.54
2023-01-07T05:24:36.726Z,58.26
2023-01-07T05:27:03.843Z,58.56
2023-01-07T05:29:30.958Z,57.89
2023-01-07T05:31:57.956Z,58.21
2023-01-07T05:34:25.767Z,58.38
2023-01-07T05:36:52.925Z,58.60
2023-01-07T05:39:19.965Z,59.15
2023-01-07T05:41:47.019Z,58.81
2023-01-07T05:44:14.076Z,59.05
2023-01-07T05:46:41.083Z,58.20
2023-01-07T05:49:08.237Z,58.71
2023-01-07T05:51:35.724Z,58.94
2023-01-07T05:54:02.733Z,58.40
2023-01-07T05:56:29.743Z,59.07
2023-01-07T05:58:56.760Z,59.11
2023-01-07T06:01:23.774Z,58.59
2023-01-07T06:03:50.816Z,58.50
2023-01-07T06:06:17.977Z,59.07
2023-01-07T06:08:45.121Z,58.31
2023-01-07T06:11:12.069Z,58.90
2023-01-07T06:13:39.195Z,58.39
2023-01-07T06:16:09.189Z,58.76
2023-01-07T06:18:36.634Z,58.25
2023-01-07T06:21:03.756Z,58.05
2023-01-07T06:23:31.539Z,58.17
2023-01-07T06:25:58.608Z,58.57
2023-01-07T06:28:25.636Z,58.02
2023-01-07T06:30:52.662Z,58.20
2023-01-07T06:33:19.751Z,58.88
2023-01-07T06:35:47.041Z,58.06
2023-01-07T06:38:14.140Z,58.03
2023-01-07T06:40:41.186Z,58.73
2023-01-07T06:43:08.165Z,57.87
2023-01-07T06:45:35.122Z,58.48
2023-01-07T06:48:02.651Z,58.94
2023-01-07T06:50:29.733Z,58.80
2023-01-07T06:52:57.043Z,58.75
2023-01-07T06:55:24.135Z,57.76
2023-01-07T06:57:51.098Z,57.96
2023-01-07T07:00:18.255Z,58.03
2023-01-07T07:02:45.277Z,57.67
2023-01-07T07:05:12.783Z,58.33
2023-01-07T07:07:39.814Z,57.78
2023-01-07T07:10:08.464Z,58.61
2023-01-07T07:12:37.042Z,57.80
2023-01-07T07:15:06.071Z,58.20
2023-01-07T07:17:34.839Z,57.46
2023-01-07T07:20:02.047Z,57.66
2023-01-07T07:22:30.600Z,57.62
2023-01-07T07:24:57.638Z,57.70
2023-01-07T07:27:24.591Z,57.80
2023-01-07T07:29:51.559Z,57.64
2023-01-07T07:32:18.476Z,57.68
2023-01-07T07:34:45.461Z,57.42
2023-01-07T07:37:12.463Z,57.24
2023-01-07T07:39:39.374Z,57.32
2023-01-07T07:42:06.423Z,57.43
2023-01-07T07:44:33.469Z,57.74
2023-01-07T07:47:00.432Z,57.79
2023-01-07T07:49:27.426Z,58.15
2023-01-07T07:51:54.482Z,57.62
2023-01-07T07:54:23.810Z,57.33
2023-01-07T07:56:51.322Z,57.18
2023-01-07T07:59:18.311Z,57.60
2023-01-07T08:01:45.364Z,57.63
2023-01-07T08:04:12.375Z,57.42
2023-01-07T08:06:39.421Z,57.89
2023-01-07T08:09:06.403Z,57.93
2023-01-07T08:11:33.398Z,57.90
2023-01-07T08:14:00.460Z,57.89
2023-01-07T08:16:27.967Z,57.99
2023-01-07T08:18:54.990Z,57.46
2023-01-07T08:21:21.981Z,57.83
2023-01-07T08:23:48.939Z,57.76
2023-01-07T08:26:15.912Z,57.89
2023-01-07T08:28:43.767Z,57.62
2023-01-07T08:31:12.210Z,57.72
2023-01-07T08:33:39.963Z,57.56
2023-01-07T08:36:18.111Z,57.21
2023-01-07T08:38:53.109Z,57.73
2023-01-07T08:41:22.099Z,57.63
2023-01-07T08:43:49.166Z,57.53
2023-01-07T08:46:16.427Z,57.54
2023-01-07T08:48:43.467Z,57.70
2023-01-07T08:51:10.451Z,57.45
2023-01-07T08:53:37.447Z,57.65
2023-01-07T08:56:04.655Z,57.88
2023-01-07T08:58:31.622Z,57.00
2023-01-07T09:01:04.160Z,57.50
2023-01-07T09:03:31.428Z,57.39
2023-01-07T09:05:58.999Z,57.28
2023-01-07T09:08:26.079Z,57.62
2023-01-07T09:10:53.030Z,57.39
2023-01-07T09:13:19.932Z,57.61
2023-01-07T09:15:46.853Z,57.71
2023-01-07T09:18:13.823Z,57.43
2023-01-07T09:20:40.792Z,57.30
2023-01-07T09:23:08.230Z,58.26
2023-01-07T09:25:35.188Z,57.45
2023-01-07T09:28:02.123Z,57.15
2023-01-07T09:30:29.173Z,57.20
2023-01-07T09:32:56.231Z,57.10
2023-01-07T09:35:23.445Z,56.27
2023-01-07T09:37:50.503Z,56.69
2023-01-07T09:40:35.756Z,56.11
2023-01-07T09:43:14.387Z,57.02
2023-01-07T09:45:55.469Z,56.33
2023-01-07T09:48:32.195Z,56.19
2023-01-07T09:51:01.863Z,55.63
2023-01-07T09:53:41.608Z,56.89
2023-01-07T09:56:20.169Z,57.20
2023-01-07T09:58:48.788Z,55.79
2023-01-07T10:01:37.495Z,55.69
2023-01-07T10:04:26.268Z,56.87
2023-01-07T10:07:31.862Z,55.85
2023-01-07T10:10:01.472Z,55.70
2023-01-07T10:12:35.950Z,56.32
2023-01-07T10:15:17.995Z,55.20
2023-01-07T10:17:57.139Z,54.45
2023-01-07T10:20:45.692Z,55.20
2023-01-07T10:23:37.556Z,54.05
2023-01-07T10:26:11.230Z,53.30
2023-01-07T10:29:25.684Z,53.53
2023-01-07T10:31:58.013Z,54.45
2023-01-07T10:34:38.727Z,54.72
2023-01-07T10:37:46.079Z,54.94
2023-01-07T10:40:22.195Z,54.74
2023-01-07T10:43:05.021Z,55.18
2023-01-07T10:45:48.047Z,54.40
2023-01-07T10:48:39.398Z,53.12
2023-01-07T10:51:27.729Z,53.52
2023-01-07T10:54:13.097Z,53.79
2023-01-07T10:56:45.330Z,53.85
2023-01-07T10:59:18.273Z,54.27
2023-01-07T11:01:59.498Z,52.47
2023-01-07T11:04:27.163Z,52.05
2023-01-07T11:06:59.820Z,52.61
2023-01-07T11:09:31.551Z,51.43
2023-01-07T11:12:03.141Z,52.45
2023-01-07T11:14:36.183Z,52.56
2023-01-07T11:17:17.208Z,52.58
2023-01-07T11:19:51.608Z,52.00
2023-01-07T11:22:27.467Z,51.71
2023-01-07T11:24:56.138Z,51.83
2023-01-07T11:27:29.431Z,51.51
2023-01-07T11:30:05.164Z,51.95
2023-01-07T11:32:38.674Z,51.12
2023-01-07T11:35:18.247Z,50.82
2023-01-07T11:37:48.028Z,51.95
2023-01-07T11:40:17.341Z,51.65
2023-01-07T11:43:00.663Z,51.26
2023-01-07T11:45:30.905Z,52.40
2023-01-07T11:48:14.922Z,52.53
2023-01-07T11:50:57.443Z,52.16
2023-01-07T11:53:37.278Z,52.00
2023-01-07T11:56:08.482Z,50.62
2023-01-07T11:58:41.285Z,51.97
2023-01-07T12:01:08.877Z,51.68
2023-01-07T12:03:42.112Z,52.01
2023-01-07T12:06:25.430Z,52.30
2023-01-07T12:09:00.610Z,52.37
2023-01-07T12:11:36.766Z,52.90
2023-01-07T12:14:09.228Z,53.17
2023-01-07T12:16:38.823Z,52.28
2023-01-07T12:19:39.681Z,52.61
2023-01-07T12:22:33.605Z,53.26
2023-01-07T12:25:37.078Z,53.12
2023-01-07T12:28:06.729Z,52.79
2023-01-07T12:31:15.343Z,53.64
2023-01-07T12:33:57.384Z,53.68
2023-01-07T12:36:41.580Z,53.46
2023-01-07T12:39:19.652Z,53.91
2023-01-07T12:41:56.604Z,53.34
2023-01-07T12:44:58.451Z,53.79
2023-01-07T12:47:52.690Z,54.75
2023-01-07T12:50:35.835Z,53.78
2023-01-07T12:53:31.065Z,53.88
2023-01-07T12:59:51.858Z,54.60
2023-01-07T13:03:04.530Z,55.33
2023-01-07T13:05:45.417Z,55.07
2023-01-07T13:08:16.072Z,54.78
2023-01-07T13:10:48.047Z,54.88
2023-01-07T13:13:52.098Z,55.85
2023-01-07T13:16:19.588Z,55.94
2023-01-07T13:18:46.870Z,55.95
2023-01-07T13:21:16.148Z,55.11
2023-01-07T13:24:01.519Z,55.89
2023-01-07T13:26:51.257Z,56.09
2023-01-07T13:29:54.776Z,54.88
2023-01-07T13:32:52.762Z,56.07
2023-01-07T13:35:39.946Z,55.91
2023-01-07T13:38:28.333Z,55.62
2023-01-07T13:41:27.736Z,56.28
2023-01-07T13:44:10.113Z,56.34
2023-01-07T13:46:41.836Z,56.70
2023-01-07T13:49:30.674Z,56.67
2023-01-07T13:52:22.037Z,56.90
2023-01-07T13:54:49.261Z,56.78
2023-01-07T13:57:31.518Z,57.78
2023-01-07T14:00:00.635Z,57.03
2023-01-07T14:02:57.585Z,58.29
2023-01-07T14:05:27.264Z,57.54
2023-01-07T14:08:01.615Z,57.76
2023-01-07T14:10:36.390Z,57.04
2023-01-07T14:13:30.428Z,57.86
2023-01-07T14:16:12.087Z,57.13
2023-01-07T14:18:48.063Z,57.54
2023-01-07T14:21:31.378Z,57.54
2023-01-07T14:24:13.816Z,58.09
2023-01-07T14:27:09.192Z,57.78
2023-01-07T14:29:46.919Z,57.77
2023-01-07T14:32:37.175Z,58.08
2023-01-07T14:35:20.222Z,57.03
2023-01-07T14:37:48.528Z,57.07
2023-01-07T14:40:29.307Z,57.47
2023-01-07T14:42:58.167Z,57.51
2023-01-07T14:45:37.167Z,57.11
2023-01-07T14:48:10.252Z,58.16
2023-01-07T14:50:49.436Z,58.39
2023-01-07T14:53:16.402Z,57.48
2023-01-07T14:55:52.748Z,57.74
2023-01-07T14:58:28.975Z,57.11
2023-01-07T15:01:28.007Z,58.21
2023-01-07T15:04:32.767Z,57.61
2023-01-07T15:07:01.374Z,57.21
2023-01-07T15:10:03.340Z,57.35
2023-01-07T15:13:13.502Z,57.62
2023-01-07T15:16:04.278Z,57.53
2023-01-07T15:18:34.740Z,57.65
2023-01-07T15:21:18.890Z,57.59
2023-01-07T15:23:54.546Z,58.92
2023-01-07T15:26:28.917Z,58.74
2023-01-07T15:29:09.523Z,58.37
2023-01-07T15:31:45.623Z,58.04
2023-01-07T15:34:17.237Z,58.30
2023-01-07T15:36:48.139Z,58.63
2023-01-07T15:39:25.297Z,58.94
2023-01-07T15:41:57.009Z,58.56
2023-01-07T15:44:28.996Z,58.16
2023-01-07T15:46:56.370Z,58.96
2023-01-07T15:49:25.227Z,58.84
2023-01-07T15:51:59.754Z,57.79
2023-01-07T15:54:32.799Z,58.70
2023-01-07T15:57:05.243Z,58.60
2023-01-07T15:59:35.447Z,59.33
2023-01-07T16:02:25.118Z,59.36
2023-01-07T16:04:55.168Z,59.81
2023-01-07T16:07:28.336Z,58.70
2023-01-07T16:09:57.038Z,58.26
2023-01-07T16:12:38.587Z,58.52
2023-01-07T16:15:28.138Z,59.56
2023-01-07T16:18:01.403Z,58.67
2023-01-07T16:20:32.531Z,59.04
2023-01-07T16:23:08.367Z,60.04
2023-01-07T16:25:38.198Z,59.56
2023-01-07T16:28:05.987Z,58.89
2023-01-07T16:30:41.469Z,59.30
2023-01-07T16:33:14.239Z,59.47
2023-01-07T16:35:41.609Z,59.71
2023-01-07T16:38:09.452Z,59.81
2023-01-07T16:40:38.926Z,60.03
2023-01-07T16:43:30.460Z,59.95
2023-01-07T16:46:18.912Z,60.38
2023-01-07T16:48:50.173Z,59.71
2023-01-07T16:51:42.078Z,60.76
2023-01-07T16:54:19.579Z,60.67
2023-01-07T16:56:54.950Z,60.87
2023-01-07T16:59:26.318Z,60.42
2023-01-07T17:01:53.879Z,60.29
2023-01-07T17:04:30.001Z,60.28
2023-01-07T17:06:59.386Z,60.64
2023-01-07T17:09:33.386Z,59.68
2023-01-07T17:12:00.367Z,59.85
2023-01-07T17:14:33.631Z,60.75
2023-01-07T17:17:17.095Z,60.64
2023-01-07T17:20:14.669Z,60.82
2023-01-07T17:22:42.719Z,60.35
2023-01-07T17:25:28.512Z,60.53
2023-01-07T17:28:00.006Z,60.80
2023-01-07T17:30:36.137Z,60.60
2023-01-07T17:33:03.931Z,60.92
2023-01-07T17:35:30.935Z,61.41
2023-01-07T17:37:58.048Z,61.38
2023-01-07T17:40:25.110Z,60.46
2023-01-07T17:43:10.551Z,61.11
2023-01-07T17:45:37.607Z,60.96
2023-01-07T17:48:13.632Z,61.10
2023-01-07T17:50:41.506Z,60.98
2023-01-07T17:53:21.785Z,60.55
2023-01-07T17:55:48.860Z,60.93
2023-01-07T17:58:29.055Z,61.69
2023-01-07T18:00:57.360Z,61.11
2023-01-07T18:03:25.310Z,60.37
2023-01-07T18:05:52.522Z,61.13
2023-01-07T18:08:19.646Z,61.39
2023-01-07T18:11:05.575Z,60.91
2023-01-07T18:13:32.553Z,61.33
2023-01-07T18:15:59.654Z,60.99
2023-01-07T18:18:30.430Z,61.64
2023-01-07T18:20:58.153Z,61.79
2023-01-07T18:23:25.583Z,60.88
2023-01-07T18:25:52.734Z,61.30
2023-01-07T18:28:19.725Z,60.99
2023-01-07T18:30:46.673Z,60.71
2023-01-07T18:33:13.635Z,61.48
2023-01-07T18:35:43.423Z,61.31
2023-01-07T18:38:14.545Z,61.73
2023-01-07T18:40:41.789Z,61.24
2023-01-07T18:43:14.351Z,61.24
2023-01-07T18:45:43.220Z,62.11
2023-01-07T18:48:11.936Z,61.88
2023-01-07T18:50:43.430Z,61.38
2023-01-07T18:53:11.193Z,61.90
2023-01-07T18:55:40.382Z,61.84
2023-01-07T18:58:08.823Z,61.89
2023-01-07T19:00:36.129Z,61.10
2023-01-07T19:03:03.404Z,61.02
2023-01-07T19:05:30.695Z,61.31
2023-01-07T19:07:57.815Z,61.33
2023-01-07T19:10:25.984Z,61.35
2023-01-07T19:12:53.259Z,61.56
2023-01-07T19:15:20.379Z,62.00
2023-01-07T19:17:47.341Z,61.23
2023-01-07T19:20:15.486Z,61.57
2023-01-07T19:22:42.834Z,62.10
2023-01-07T19:25:10.159Z,62.24
2023-01-07T19:27:37.420Z,62.25
2023-01-07T19:30:05.782Z,61.56
2023-01-07T19:32:32.931Z,62.04
2023-01-07T19:35:01.072Z,61.50
2023-01-07T19:37:28.579Z,61.39
2023-01-07T19:39:55.593Z,61.58
2023-01-07T19:42:22.587Z,61.54
2023-01-07T19:44:49.602Z,61.22
2023-01-07T19:47:17.424Z,61.86
2023-01-07T19:49:45.467Z,61.72
2023-01-07T19:52:13.776Z,62.23
2023-01-07T19:54:41.915Z,61.42
2023-01-07T19:57:09.309Z,61.59
2023-01-07T19:59:36.441Z,61.48
2023-01-07T20:02:04.747Z,61.68
2023-01-07T20:04:31.862Z,61.39
2023-01-07T20:06:58.964Z,61.43
2023-01-07T20:09:27.937Z,61.25
2023-01-07T20:11:54.942Z,62.03
2023-01-07T20:14:22.007Z,61.64
2023-01-07T20:16:49.121Z,62.22
2023-01-07T20:19:16.239Z,61.58
2023-01-07T20:21:43.220Z,61.58
2023-01-07T20:24:12.535Z,61.53
2023-01-07T20:26:39.560Z,62.33
2023-01-07T20:29:06.593Z,62.34
2023-01-07T20:31:33.672Z,61.67
2023-01-07T20:34:00.746Z,61.77
2023-01-07T20:36:30.243Z,62.20
2023-01-07T20:38:57.618Z,62.33
2023-01-07T20:41:26.520Z,62.68
2023-01-07T20:43:59.356Z,62.91
2023-01-07T20:46:28.587Z,62.69
2023-01-07T20:48:56.177Z,62.54
2023-01-07T20:51:23.404Z,62.37
2023-01-07T20:53:50.640Z,62.72
2023-01-07T20:56:22.885Z,62.39
2023-01-07T20:58:50.525Z,62.23
2023-01-07T21:01:20.690Z,63.03
2023-01-07T21:03:48.101Z,63.04
2023-01-07T21:06:17.692Z,62.37
2023-01-07T21:08:46.941Z,62.46
2023-01-07T21:11:17.063Z,63.73
2023-01-07T21:13:44.340Z,64.04
2023-01-07T21:16:12.357Z,63.96
2023-01-07T21:18:40.021Z,62.87
2023-01-07T21:21:19.177Z,62.94
2023-01-07T21:23:49.527Z,63.19
2023-01-07T21:26:17.778Z,63.32
2023-01-07T21:28:45.555Z,63.52
2023-01-07T21:31:15.445Z,64.00
2023-01-07T21:33:43.566Z,63.64
2023-01-07T21:36:12.949Z,63.87
2023-01-07T21:38:40.177Z,64.17
2023-01-07T21:44:52.506Z,64.04
2023-01-07T21:47:19.539Z,63.55
2023-01-07T21:49:46.491Z,63.79
2023-01-07T21:52:13.523Z,63.21
2023-01-07T21:54:40.498Z,63.36
2023-01-07T21:57:07.483Z,63.39
2023-01-07T21:59:34.554Z,63.42
2023-01-07T22:02:01.890Z,63.28
2023-01-07T22:04:29.291Z,63.45
2023-01-07T22:06:56.723Z,63.75
2023-01-07T22:09:25.412Z,63.37
2023-01-07T22:11:52.508Z,63.30
2023-01-07T22:14:19.658Z,63.58
2023-01-07T22:16:49.319Z,64.28
2023-01-07T22:19:16.468Z,64.22
2023-01-07T22:21:43.502Z,64.05
2023-01-07T22:24:10.776Z,63.95
2023-01-07T22:26:38.296Z,63.84
2023-01-07T22:29:07.945Z,63.59
2023-01-07T22:31:36.895Z,63.75
2023-01-07T22:34:06.497Z,63.71
2023-01-07T22:37:10.249Z,63.19
2023-01-07T22:39:47.264Z,63.23
2023-01-07T22:42:31.122Z,62.95
2023-01-07T22:45:15.337Z,63.30
2023-01-07T22:47:46.063Z,62.99
2023-01-07T22:50:14.746Z,63.36
2023-01-07T22:52:46.051Z,63.16
2023-01-07T22:55:13.281Z,63.15
2023-01-07T22:57:40.998Z,63.00
2023-01-07T23:00:15.546Z,63.27
2023-01-07T23:02:42.566Z,63.21
2023-01-07T23:05:09.585Z,62.98
2023-01-07T23:07:36.629Z,62.97
2023-01-07T23:10:03.985Z,63.03
2023-01-07T23:12:31.273Z,63.17
2023-01-07T23:14:58.250Z,63.15
2023-01-07T23:17:26.376Z,63.55
2023-01-07T23:19:53.324Z,63.55
2023-01-07T23:22:20.286Z,63.24
2023-01-07T23:24:47.262Z,63.19
2023-01-07T23:27:14.224Z,63.34
2023-01-07T23:30:10.256Z,63.37
2023-01-07T23:32:38.186Z,62.94
2023-01-07T23:35:05.596Z,63.22
2023-01-07T23:37:33.070Z,63.08
2023-01-07T23:40:00.128Z,63.12
2023-01-07T23:42:27.092Z,63.38
2023-01-07T23:44:54.137Z,62.94
2023-01-07T23:47:21.155Z,63.19
2023-01-07T23:49:48.144Z,63.15
2023-01-07T23:52:15.273Z,63.87
2023-01-07T23:54:42.338Z,63.06
2023-01-07T23:57:09.688Z,63.55
2023-01-07T23:59:36.801Z,63.00
